createdAt,value
2024-05-09T00:00:57.742Z,1005.62
2024-05-09T00:01:57.739Z,1005.58
2024-05-09T00:02:57.749Z,1005.61
2024-05-09T00:03:57.745Z,1005.59
2024-05-09T00:04:57.837Z,1005.59
2024-05-09T00:05:57.750Z,1005.57
2024-05-09T00:06:57.669Z,1005.61
2024-05-09T00:07:58.238Z,1005.52
2024-05-09T00:08:57.646Z,1005.59
2024-05-09T00:09:57.639Z,1005.55
2024-05-09T00:10:57.665Z,1005.56
2024-05-09T00:11:57.749Z,1005.58
2024-05-09T00:12:57.643Z,1005.64
2024-05-09T00:13:57.646Z,1005.53
2024-05-09T00:14:57.603Z,1005.57
2024-05-09T00:15:57.601Z,1005.63
2024-05-09T00:16:57.616Z,1005.58
2024-05-09T00:17:57.760Z,1005.59
2024-05-09T00:18:57.648Z,1005.64
2024-05-09T00:19:57.614Z,1005.60
2024-05-09T00:20:57.663Z,1005.58
2024-05-09T00:21:57.563Z,1005.63
2024-05-09T00:22:57.605Z,1005.61
2024-05-09T00:23:57.534Z,1005.60
2024-05-09T00:24:57.525Z,1005.57
2024-05-09T00:25:57.548Z,1005.59
2024-05-09T00:26:57.509Z,1005.54
2024-05-09T00:27:57.544Z,1005.62
2024-05-09T00:28:57.529Z,1005.51
2024-05-09T00:29:57.487Z,1005.58
2024-05-09T00:30:57.487Z,1005.56
2024-05-09T00:31:57.639Z,1005.54
2024-05-09T00:32:57.639Z,1005.59
2024-05-09T00:33:57.772Z,1005.50
2024-05-09T00:34:57.493Z,1005.55
2024-05-09T00:35:57.440Z,1005.55
2024-05-09T00:36:57.458Z,1005.57
2024-05-09T00:37:57.483Z,1005.52
2024-05-09T00:38:57.434Z,1005.59
2024-05-09T00:39:57.500Z,1005.62
2024-05-09T00:40:58.447Z,1005.57
2024-05-09T00:41:57.391Z,1005.57
2024-05-09T00:42:57.415Z,1005.62
2024-05-09T00:43:57.472Z,1005.59
2024-05-09T00:44:57.365Z,1005.62
2024-05-09T00:45:57.381Z,1005.58
2024-05-09T00:46:57.388Z,1005.55
2024-05-09T00:47:57.598Z,1005.60
2024-05-09T00:48:57.494Z,1005.57
2024-05-09T00:49:57.350Z,1005.59
2024-05-09T00:50:57.376Z,1005.55
2024-05-09T00:51:57.313Z,1005.54
2024-05-09T00:52:57.368Z,1005.55
2024-05-09T00:53:57.307Z,1005.55
2024-05-09T00:54:57.289Z,1005.55
2024-05-09T00:55:57.286Z,1005.55
2024-05-09T00:56:57.275Z,1005.57
2024-05-09T00:57:57.284Z,1005.54
2024-05-09T00:58:57.328Z,1005.55
2024-05-09T00:59:57.247Z,1005.48
2024-05-09T01:00:57.338Z,1005.52
2024-05-09T01:01:57.327Z,1005.52
2024-05-09T01:02:57.303Z,1005.55
2024-05-09T01:03:57.350Z,1005.57
2024-05-09T01:04:57.295Z,1005.66
2024-05-09T01:05:57.401Z,1005.61
2024-05-09T01:06:57.186Z,1005.62
2024-05-09T01:07:57.234Z,1005.67
2024-05-09T01:08:57.179Z,1005.64
2024-05-09T01:09:57.165Z,1005.59
2024-05-09T01:10:57.326Z,1005.62
2024-05-09T01:11:57.214Z,1005.66
2024-05-09T01:12:57.177Z,1005.67
2024-05-09T01:13:57.165Z,1005.59
2024-05-09T01:14:57.137Z,1005.63
2024-05-09T01:15:57.125Z,1005.58
2024-05-09T01:16:57.153Z,1005.57
2024-05-09T01:17:57.548Z,1005.60
2024-05-09T01:18:57.176Z,1005.63
2024-05-09T01:19:57.150Z,1005.61
2024-05-09T01:20:57.112Z,1005.58
2024-05-09T01:21:57.109Z,1005.55
2024-05-09T01:22:57.114Z,1005.64
2024-05-09T01:23:57.065Z,1005.62
2024-05-09T01:24:57.050Z,1005.55
2024-05-09T01:25:57.086Z,1005.61
2024-05-09T01:26:57.085Z,1005.67
2024-05-09T01:27:57.093Z,1005.67
2024-05-09T01:28:57.055Z,1005.62
2024-05-09T01:29:57.028Z,1005.68
2024-05-09T01:30:57.016Z,1005.66
2024-05-09T01:31:57.132Z,1005.67
2024-05-09T01:32:57.178Z,1005.66
2024-05-09T01:33:57.100Z,1005.68
2024-05-09T01:34:56.997Z,1005.72
2024-05-09T01:35:57.020Z,1005.71
2024-05-09T01:36:56.982Z,1005.71
2024-05-09T01:37:57.000Z,1005.70
2024-05-09T01:38:56.954Z,1005.77
2024-05-09T01:39:56.941Z,1005.69
2024-05-09T01:40:56.966Z,1005.69
2024-05-09T01:41:56.950Z,1005.72
2024-05-09T01:42:56.924Z,1005.78
2024-05-09T01:43:56.948Z,1005.71
2024-05-09T01:44:56.905Z,1005.69
2024-05-09T01:45:56.896Z,1005.72
2024-05-09T01:46:57.004Z,1005.67
2024-05-09T01:47:56.985Z,1005.66
2024-05-09T01:48:56.997Z,1005.67
2024-05-09T01:49:56.921Z,1005.61
2024-05-09T01:50:56.908Z,1005.67
2024-05-09T01:51:56.855Z,1005.66
2024-05-09T01:52:56.887Z,1005.61
2024-05-09T01:53:56.840Z,1005.57
2024-05-09T01:54:57.015Z,1005.59
2024-05-09T01:55:56.910Z,1005.65
2024-05-09T01:56:57.817Z,1005.61
2024-05-09T01:57:56.824Z,1005.63
2024-05-09T01:58:56.839Z,1005.63
2024-05-09T01:59:56.810Z,1005.60
2024-05-09T02:00:56.822Z,1005.65
2024-05-09T02:01:57.887Z,1005.59
2024-05-09T02:02:56.917Z,1005.61
2024-05-09T02:03:56.944Z,1005.56
2024-05-09T02:04:56.835Z,1005.63
2024-05-09T02:05:56.794Z,1005.58
2024-05-09T02:06:56.755Z,1005.58
2024-05-09T02:07:56.766Z,1005.62
2024-05-09T02:08:56.755Z,1005.61
2024-05-09T02:09:56.738Z,1005.63
2024-05-09T02:10:56.789Z,1005.57
2024-05-09T02:11:56.813Z,1005.55
2024-05-09T02:12:56.687Z,1005.56
2024-05-09T02:13:56.752Z,1005.56
2024-05-09T02:14:56.742Z,1005.53
2024-05-09T02:15:56.671Z,1005.60
2024-05-09T02:16:56.669Z,1005.50
2024-05-09T02:17:57.018Z,1005.58
2024-05-09T02:18:56.742Z,1005.51
2024-05-09T02:19:56.673Z,1005.58
2024-05-09T02:20:56.691Z,1005.56
2024-05-09T02:21:56.630Z,1005.58
2024-05-09T02:22:56.633Z,1005.59
2024-05-09T02:23:56.630Z,1005.56
2024-05-09T02:24:56.595Z,1005.57
2024-05-09T02:25:56.619Z,1005.52
2024-05-09T02:26:56.581Z,1005.61
2024-05-09T02:27:56.602Z,1005.56
2024-05-09T02:28:56.624Z,1005.58
2024-05-09T02:29:56.576Z,1005.57
2024-05-09T02:30:56.559Z,1005.61
2024-05-09T02:31:57.675Z,1005.59
2024-05-09T02:32:56.727Z,1005.63
2024-05-09T02:33:56.892Z,1005.56
2024-05-09T02:34:56.584Z,1005.58
2024-05-09T02:35:56.528Z,1005.54
2024-05-09T02:36:56.559Z,1005.59
2024-05-09T02:37:56.574Z,1005.53
2024-05-09T02:38:56.495Z,1005.61
2024-05-09T02:39:56.480Z,1005.60
2024-05-09T02:40:56.542Z,1005.60
2024-05-09T02:41:56.477Z,1005.55
2024-05-09T02:42:56.487Z,1005.59
2024-05-09T02:43:56.505Z,1005.56
2024-05-09T02:44:56.458Z,1005.60
2024-05-09T02:45:57.273Z,1005.54
2024-05-09T02:46:56.491Z,1005.59
2024-05-09T02:47:56.726Z,1005.59
2024-05-09T02:48:56.465Z,1005.55
2024-05-09T02:49:56.437Z,1005.62
2024-05-09T02:50:56.472Z,1005.49
2024-05-09T02:51:56.429Z,1005.55
2024-05-09T02:52:56.462Z,1005.53
2024-05-09T02:53:56.388Z,1005.57
2024-05-09T02:54:56.375Z,1005.58
2024-05-09T02:55:56.405Z,1005.47
2024-05-09T02:56:56.384Z,1005.54
2024-05-09T02:57:56.345Z,1005.58
2024-05-09T02:58:56.423Z,1005.54
2024-05-09T02:59:56.342Z,1005.53
2024-05-09T03:00:56.359Z,1005.51
2024-05-09T03:01:56.425Z,1005.55
2024-05-09T03:02:56.459Z,1005.56
2024-05-09T03:03:56.479Z,1005.54
2024-05-09T03:04:56.478Z,1005.52
2024-05-09T03:05:56.296Z,1005.51
2024-05-09T03:06:56.313Z,1005.51
2024-05-09T03:07:56.325Z,1005.56
2024-05-09T03:08:56.269Z,1005.50
2024-05-09T03:09:56.266Z,1005.55
2024-05-09T03:10:56.316Z,1005.48
2024-05-09T03:11:56.322Z,1005.49
2024-05-09T03:12:56.243Z,1005.51
2024-05-09T03:13:56.273Z,1005.53
2024-05-09T03:14:56.227Z,1005.47
2024-05-09T03:15:56.252Z,1005.43
2024-05-09T03:16:56.241Z,1005.46
2024-05-09T03:17:56.462Z,1005.42
2024-05-09T03:18:56.281Z,1005.42
2024-05-09T03:19:56.243Z,1005.49
2024-05-09T03:20:56.249Z,1005.53
2024-05-09T03:21:56.186Z,1005.51
2024-05-09T03:22:57.107Z,1005.48
2024-05-09T03:23:57.198Z,1005.42
2024-05-09T03:24:56.190Z,1005.45
2024-05-09T03:25:56.216Z,1005.40
2024-05-09T03:26:56.136Z,1005.44
2024-05-09T03:27:56.137Z,1005.51
2024-05-09T03:28:56.175Z,1005.51
2024-05-09T03:29:56.144Z,1005.51
2024-05-09T03:30:57.142Z,1005.45
2024-05-09T03:31:56.218Z,1005.43
2024-05-09T03:32:56.262Z,1005.47
2024-05-09T03:33:56.178Z,1005.47
2024-05-09T03:34:56.117Z,1005.45
2024-05-09T03:35:56.075Z,1005.45
2024-05-09T03:36:56.064Z,1005.46
2024-05-09T03:37:56.102Z,1005.49
2024-05-09T03:38:56.188Z,1005.50
2024-05-09T03:39:56.071Z,1005.46
2024-05-09T03:40:56.100Z,1005.49
2024-05-09T03:41:56.029Z,1005.51
2024-05-09T03:42:56.018Z,1005.51
2024-05-09T03:43:56.039Z,1005.55
2024-05-09T03:44:56.031Z,1005.45
2024-05-09T03:45:55.996Z,1005.43
2024-05-09T03:46:56.008Z,1005.46
2024-05-09T03:47:56.198Z,1005.44
2024-05-09T03:48:56.123Z,1005.48
2024-05-09T03:49:56.051Z,1005.45
2024-05-09T03:50:55.996Z,1005.50
2024-05-09T03:51:55.949Z,1005.47
2024-05-09T03:52:55.966Z,1005.51
2024-05-09T03:53:55.962Z,1005.50
2024-05-09T03:54:55.982Z,1005.48
2024-05-09T03:55:55.947Z,1005.51
2024-05-09T03:56:55.915Z,1005.53
2024-05-09T03:57:55.905Z,1005.45
2024-05-09T03:58:55.937Z,1005.49
2024-05-09T03:59:55.891Z,1005.54
2024-05-09T04:00:55.924Z,1005.54
2024-05-09T04:01:56.065Z,1005.49
2024-05-09T04:02:55.995Z,1005.62
2024-05-09T04:03:56.008Z,1005.54
2024-05-09T04:04:55.886Z,1005.56
2024-05-09T04:05:55.849Z,1005.61
2024-05-09T04:06:55.833Z,1005.60
2024-05-09T04:07:55.911Z,1005.56
2024-05-09T04:08:55.847Z,1005.52
2024-05-09T04:09:56.813Z,1005.61
2024-05-09T04:10:55.815Z,1005.60
2024-05-09T04:11:55.964Z,1005.55
2024-05-09T04:12:55.828Z,1005.56
2024-05-09T04:13:55.866Z,1005.50
2024-05-09T04:14:55.772Z,1005.57
2024-05-09T04:15:55.767Z,1005.58
2024-05-09T04:16:55.804Z,1005.57
2024-05-09T04:17:56.117Z,1005.57
2024-05-09T04:18:55.834Z,1005.60
2024-05-09T04:19:55.748Z,1005.56
2024-05-09T04:20:55.798Z,1005.61
2024-05-09T04:21:55.748Z,1005.59
2024-05-09T04:22:55.877Z,1005.65
2024-05-09T04:23:55.700Z,1005.67
2024-05-09T04:24:55.703Z,1005.66
2024-05-09T04:25:55.704Z,1005.67
2024-05-09T04:26:56.702Z,1005.70
2024-05-09T04:27:55.766Z,1005.69
2024-05-09T04:28:55.690Z,1005.73
2024-05-09T04:29:55.677Z,1005.69
2024-05-09T04:30:55.661Z,1005.71
2024-05-09T04:31:55.746Z,1005.68
2024-05-09T04:32:55.834Z,1005.73
2024-05-09T04:33:55.754Z,1005.75
2024-05-09T04:34:55.697Z,1005.71
2024-05-09T04:35:55.630Z,1005.75
2024-05-09T04:36:55.645Z,1005.73
2024-05-09T04:37:55.624Z,1005.73
2024-05-09T04:38:55.602Z,1005.72
2024-05-09T04:39:55.598Z,1005.72
2024-05-09T04:40:55.702Z,1005.74
2024-05-09T04:41:55.607Z,1005.80
2024-05-09T04:42:55.579Z,1005.76
2024-05-09T04:43:55.590Z,1005.80
2024-05-09T04:44:58.696Z,1005.82
2024-05-09T04:45:56.593Z,1005.81
2024-05-09T04:46:55.606Z,1005.83
2024-05-09T04:47:55.827Z,1005.84
2024-05-09T04:48:55.603Z,1005.80
2024-05-09T04:49:55.585Z,1005.83
2024-05-09T04:50:55.565Z,1005.83
2024-05-09T04:51:55.496Z,1005.82
2024-05-09T04:52:55.562Z,1005.83
2024-05-09T04:53:55.485Z,1005.86
2024-05-09T04:54:58.539Z,1005.80
2024-05-09T04:55:55.549Z,1005.85
2024-05-09T04:56:55.483Z,1005.84
2024-05-09T04:57:55.450Z,1005.85
2024-05-09T04:58:55.504Z,1005.85
2024-05-09T04:59:55.464Z,1005.93
2024-05-09T05:00:55.536Z,1005.83
2024-05-09T05:01:55.548Z,1005.93
2024-05-09T05:02:55.531Z,1005.92
2024-05-09T05:03:56.235Z,1005.87
2024-05-09T05:04:56.496Z,1005.94
2024-05-09T05:05:55.531Z,1005.90
2024-05-09T05:06:56.027Z,1005.93
2024-05-09T05:07:55.404Z,1005.91
2024-05-09T05:08:55.389Z,1005.92
2024-05-09T05:09:55.385Z,1005.98
2024-05-09T05:10:55.519Z,1005.90
2024-05-09T05:11:55.661Z,1005.93
2024-05-09T05:12:55.330Z,1005.95
2024-05-09T05:13:55.389Z,1005.99
2024-05-09T05:14:55.319Z,1006.03
2024-05-09T05:15:55.502Z,1006.00
2024-05-09T05:16:55.354Z,1006.01
2024-05-09T05:17:55.449Z,1005.92
2024-05-09T05:18:55.396Z,1005.94
2024-05-09T05:19:55.373Z,1005.98
2024-05-09T05:20:55.319Z,1005.96
2024-05-09T05:21:55.269Z,1005.96
2024-05-09T05:22:55.309Z,1005.98
2024-05-09T05:23:55.272Z,1006.03
2024-05-09T05:24:55.258Z,1005.98
2024-05-09T05:25:55.695Z,1005.92
2024-05-09T05:26:55.226Z,1006.06
2024-05-09T05:27:55.304Z,1006.00
2024-05-09T05:28:55.270Z,1005.92
2024-05-09T05:29:55.209Z,1005.98
2024-05-09T05:30:55.236Z,1005.97
2024-05-09T05:31:55.305Z,1006.02
2024-05-09T05:32:55.387Z,1005.98
2024-05-09T05:33:55.241Z,1006.02
2024-05-09T05:34:55.225Z,1006.08
2024-05-09T05:35:55.157Z,1006.06
2024-05-09T05:36:55.174Z,1006.03
2024-05-09T05:37:55.290Z,1006.10
2024-05-09T05:38:55.215Z,1006.10
2024-05-09T05:39:55.138Z,1006.04
2024-05-09T05:40:55.325Z,1006.07
2024-05-09T05:41:56.100Z,1006.02
2024-05-09T05:42:55.136Z,1006.00
2024-05-09T05:43:55.136Z,1006.06
2024-05-09T05:44:55.097Z,1006.05
2024-05-09T05:45:55.089Z,1006.03
2024-05-09T05:46:55.188Z,1006.08
2024-05-09T05:47:55.426Z,1006.03
2024-05-09T05:48:55.248Z,1006.09
2024-05-09T05:49:55.076Z,1006.13
2024-05-09T05:50:55.110Z,1006.12
2024-05-09T05:51:55.071Z,1006.07
2024-05-09T05:52:55.069Z,1006.11
2024-05-09T05:53:55.032Z,1006.07
2024-05-09T05:54:55.030Z,1006.08
2024-05-09T05:55:55.114Z,1006.06
2024-05-09T05:56:55.097Z,1006.05
2024-05-09T05:57:55.013Z,1006.13
2024-05-09T05:58:55.003Z,1006.06
2024-05-09T05:59:54.997Z,1006.12
2024-05-09T06:00:55.936Z,1006.04
2024-05-09T06:01:55.038Z,1006.09
2024-05-09T06:02:55.269Z,1006.11
2024-05-09T06:03:55.100Z,1006.08
2024-05-09T06:04:55.116Z,1006.12
2024-05-09T06:05:55.024Z,1006.15
2024-05-09T06:06:54.934Z,1006.12
2024-05-09T06:07:54.976Z,1006.10
2024-05-09T06:08:55.937Z,1006.11
2024-05-09T06:09:54.901Z,1006.15
2024-05-09T06:10:54.996Z,1006.18
2024-05-09T06:11:54.956Z,1006.05
2024-05-09T06:12:54.880Z,1006.12
2024-05-09T06:13:54.908Z,1006.14
2024-05-09T06:14:54.892Z,1006.17
2024-05-09T06:15:54.891Z,1006.16
2024-05-09T06:16:58.106Z,1006.14
2024-05-09T06:17:55.976Z,1006.18
2024-05-09T06:18:54.975Z,1006.14
2024-05-09T06:19:54.999Z,1006.10
2024-05-09T06:20:54.955Z,1006.08
2024-05-09T06:21:54.831Z,1006.14
2024-05-09T06:22:54.823Z,1006.12
2024-05-09T06:23:54.794Z,1006.16
2024-05-09T06:24:54.822Z,1006.16
2024-05-09T06:25:54.838Z,1006.13
2024-05-09T06:26:54.782Z,1006.09
2024-05-09T06:27:54.767Z,1006.12
2024-05-09T06:28:54.868Z,1006.10
2024-05-09T06:29:54.783Z,1006.13
2024-05-09T06:30:54.743Z,1006.11
2024-05-09T06:31:56.525Z,1006.12
2024-05-09T06:32:54.894Z,1006.06
2024-05-09T06:33:54.894Z,1006.06
2024-05-09T06:34:54.788Z,1006.09
2024-05-09T06:35:54.705Z,1006.10
2024-05-09T06:36:54.734Z,1006.11
2024-05-09T06:37:54.794Z,1006.11
2024-05-09T06:38:54.708Z,1006.11
2024-05-09T06:39:54.701Z,1006.06
2024-05-09T06:40:54.703Z,1006.11
2024-05-09T06:41:54.658Z,1006.10
2024-05-09T06:42:54.661Z,1006.03
2024-05-09T06:43:54.701Z,1006.06
2024-05-09T06:44:54.637Z,1006.03
2024-05-09T06:45:54.625Z,1006.10
2024-05-09T06:46:58.111Z,1006.12
2024-05-09T06:47:55.838Z,1006.12
2024-05-09T06:48:54.771Z,1006.09
2024-05-09T06:49:54.651Z,1006.07
2024-05-09T06:50:54.612Z,1006.09
2024-05-09T06:51:54.587Z,1006.05
2024-05-09T06:52:55.310Z,1006.11
2024-05-09T06:53:54.592Z,1006.03
2024-05-09T06:54:54.560Z,1006.06
2024-05-09T06:55:54.607Z,1005.94
2024-05-09T06:56:54.558Z,1006.00
2024-05-09T06:57:54.595Z,1006.05
2024-05-09T06:58:54.603Z,1006.06
2024-05-09T06:59:54.520Z,1005.99
2024-05-09T07:00:54.527Z,1006.00
2024-05-09T07:01:54.522Z,1006.06
2024-05-09T07:02:54.686Z,1006.06
2024-05-09T07:03:54.627Z,1006.05
2024-05-09T07:04:54.693Z,1006.07
2024-05-09T07:05:54.514Z,1006.05
2024-05-09T07:06:55.480Z,1006.07
2024-05-09T07:07:54.568Z,1006.01
2024-05-09T07:08:54.512Z,1006.03
2024-05-09T07:09:54.459Z,1006.09
2024-05-09T07:10:54.538Z,1006.06
2024-05-09T07:11:55.574Z,1006.05
2024-05-09T07:12:55.468Z,1006.03
2024-05-09T07:13:54.456Z,1006.03
2024-05-09T07:14:54.415Z,1006.09
2024-05-09T07:15:54.423Z,1006.04
2024-05-09T07:16:54.532Z,1006.03
2024-05-09T07:17:54.517Z,1006.02
2024-05-09T07:18:54.621Z,1006.01
2024-05-09T07:19:54.404Z,1006.04
2024-05-09T07:20:54.403Z,1005.98
2024-05-09T07:21:54.399Z,1006.02
2024-05-09T07:22:54.419Z,1006.04
2024-05-09T07:23:54.447Z,1006.04
2024-05-09T07:24:54.425Z,1005.92
2024-05-09T07:25:54.436Z,1005.88
2024-05-09T07:26:54.364Z,1005.92
2024-05-09T07:27:54.316Z,1005.90
2024-05-09T07:28:54.355Z,1005.87
2024-05-09T07:29:54.310Z,1005.89
2024-05-09T07:30:54.315Z,1005.98
2024-05-09T07:31:54.338Z,1005.91
2024-05-09T07:32:54.418Z,1005.90
2024-05-09T07:33:54.398Z,1005.94
2024-05-09T07:34:54.313Z,1005.89
2024-05-09T07:35:54.283Z,1005.98
2024-05-09T07:36:54.243Z,1005.92
2024-05-09T07:37:54.343Z,1005.89
2024-05-09T07:38:54.245Z,1005.95
2024-05-09T07:39:54.258Z,1005.97
2024-05-09T07:40:54.292Z,1005.91
2024-05-09T07:41:54.214Z,1005.92
2024-05-09T07:42:54.216Z,1005.93
2024-05-09T07:43:54.208Z,1006.02
2024-05-09T07:44:55.512Z,1005.99
2024-05-09T07:45:56.121Z,1005.93
2024-05-09T07:48:13.752Z,1005.95
2024-05-09T07:49:44.190Z,1006.02
2024-05-09T07:50:35.250Z,1005.97
2024-05-09T07:52:38.640Z,1005.94
2024-05-09T07:53:21.788Z,1006.00
2024-05-09T07:53:58.265Z,1005.88
2024-05-09T07:54:55.267Z,1005.91
2024-05-09T07:55:54.521Z,1005.91
2024-05-09T07:56:54.735Z,1005.89
2024-05-09T07:57:54.117Z,1005.87
2024-05-09T07:58:54.495Z,1005.80
2024-05-09T07:59:54.103Z,1005.76
2024-05-09T08:00:54.171Z,1005.86
2024-05-09T08:01:54.099Z,1005.78
2024-05-09T08:02:54.096Z,1005.77
2024-05-09T08:03:54.403Z,1005.74
2024-05-09T08:04:54.126Z,1005.80
2024-05-09T08:05:55.097Z,1005.79
2024-05-09T08:06:54.054Z,1005.76
2024-05-09T08:07:54.035Z,1005.78
2024-05-09T08:08:54.041Z,1005.80
2024-05-09T08:09:54.032Z,1005.70
2024-05-09T08:10:54.052Z,1005.74
2024-05-09T08:11:54.086Z,1005.69
2024-05-09T08:12:54.075Z,1005.76
2024-05-09T08:13:54.002Z,1005.72
2024-05-09T08:14:53.955Z,1005.62
2024-05-09T08:15:53.997Z,1005.65
2024-05-09T08:16:53.976Z,1005.59
2024-05-09T08:17:54.023Z,1005.57
2024-05-09T08:18:54.008Z,1005.59
2024-05-09T08:19:53.939Z,1005.60
2024-05-09T08:20:53.951Z,1005.67
2024-05-09T08:21:54.052Z,1005.59
2024-05-09T08:22:54.023Z,1005.64
2024-05-09T08:23:53.892Z,1005.58
2024-05-09T08:24:53.890Z,1005.59
2024-05-09T08:25:53.872Z,1005.53
2024-05-09T08:26:53.859Z,1005.53
2024-05-09T08:27:53.901Z,1005.52
2024-05-09T08:28:53.850Z,1005.54
2024-05-09T08:29:53.950Z,1005.55
2024-05-09T08:30:54.078Z,1005.52
2024-05-09T08:31:53.890Z,1005.53
2024-05-09T08:32:54.064Z,1005.55
2024-05-09T08:33:53.883Z,1005.50
2024-05-09T08:34:53.919Z,1005.48
2024-05-09T08:35:53.810Z,1005.45
2024-05-09T08:36:54.231Z,1005.48
2024-05-09T08:37:53.880Z,1005.52
2024-05-09T08:38:53.766Z,1005.44
2024-05-09T08:39:53.808Z,1005.50
2024-05-09T08:40:53.839Z,1005.54
2024-05-09T08:41:53.782Z,1005.50
2024-05-09T08:42:53.813Z,1005.48
2024-05-09T08:43:53.734Z,1005.49
2024-05-09T08:44:53.753Z,1005.53
2024-05-09T08:45:53.754Z,1005.47
2024-05-09T08:46:53.772Z,1005.40
2024-05-09T08:47:53.792Z,1005.45
2024-05-09T08:48:53.994Z,1005.45
2024-05-09T08:49:53.836Z,1005.44
2024-05-09T08:50:53.887Z,1005.38
2024-05-09T08:51:53.769Z,1005.45
2024-05-09T08:52:53.664Z,1005.38
2024-05-09T08:53:53.657Z,1005.44
2024-05-09T08:54:53.739Z,1005.43
2024-05-09T08:55:53.678Z,1005.48
2024-05-09T08:56:53.664Z,1005.38
2024-05-09T08:57:53.709Z,1005.39
2024-05-09T08:58:53.669Z,1005.47
2024-05-09T08:59:53.613Z,1005.40
2024-05-09T09:00:53.774Z,1005.38
2024-05-09T09:01:53.751Z,1005.42
2024-05-09T09:02:53.636Z,1005.41
2024-05-09T09:03:53.801Z,1005.43
2024-05-09T09:04:53.679Z,1005.34
2024-05-09T09:05:53.665Z,1005.39
2024-05-09T09:06:56.328Z,1005.32
2024-05-09T09:07:53.565Z,1005.36
2024-05-09T09:08:53.560Z,1005.30
2024-05-09T09:09:53.611Z,1005.34
2024-05-09T09:10:53.707Z,1005.34
2024-05-09T09:11:53.566Z,1005.31
2024-05-09T09:12:53.572Z,1005.31
2024-05-09T09:13:53.523Z,1005.34
2024-05-09T09:14:53.536Z,1005.26
2024-05-09T09:15:53.565Z,1005.32
2024-05-09T09:16:53.505Z,1005.31
2024-05-09T09:17:53.570Z,1005.32
2024-05-09T09:18:53.614Z,1005.20
2024-05-09T09:19:53.531Z,1005.23
2024-05-09T09:20:53.483Z,1005.31
2024-05-09T09:21:53.517Z,1005.26
2024-05-09T09:22:53.449Z,1005.21
2024-05-09T09:23:53.435Z,1005.26
2024-05-09T09:24:53.465Z,1005.24
2024-05-09T09:25:53.462Z,1005.23
2024-05-09T09:26:53.415Z,1005.30
2024-05-09T09:27:53.439Z,1005.22
2024-05-09T09:28:53.414Z,1005.21
2024-05-09T09:29:53.381Z,1005.16
2024-05-09T09:30:53.425Z,1005.11
2024-05-09T09:31:53.369Z,1005.16
2024-05-09T09:32:53.407Z,1005.19
2024-05-09T09:33:53.656Z,1005.14
2024-05-09T09:34:53.395Z,1005.25
2024-05-09T09:35:53.362Z,1005.21
2024-05-09T09:36:53.338Z,1005.20
2024-05-09T09:37:53.323Z,1005.21
2024-05-09T09:38:53.325Z,1005.24
2024-05-09T09:39:53.356Z,1005.26
2024-05-09T09:40:53.345Z,1005.29
2024-05-09T09:41:53.308Z,1005.24
2024-05-09T09:42:53.415Z,1005.30
2024-05-09T09:43:53.277Z,1005.30
2024-05-09T09:45:02.108Z,1005.29
2024-05-09T09:45:55.454Z,1005.28
2024-05-09T09:46:53.300Z,1005.25
2024-05-09T09:47:53.375Z,1005.20
2024-05-09T09:48:53.355Z,1005.21
2024-05-09T09:49:53.297Z,1005.15
2024-05-09T09:50:53.218Z,1005.18
2024-05-09T09:51:53.243Z,1005.11
2024-05-09T09:52:53.213Z,1005.22
2024-05-09T09:53:53.226Z,1005.17
2024-05-09T09:54:53.275Z,1005.20
2024-05-09T09:55:53.182Z,1005.18
2024-05-09T09:56:53.185Z,1005.16
2024-05-09T09:57:53.192Z,1005.10
2024-05-09T09:58:53.245Z,1005.14
2024-05-09T09:59:53.151Z,1005.06
2024-05-09T10:00:53.250Z,1005.08
2024-05-09T10:01:53.265Z,1005.09
2024-05-09T10:02:53.191Z,1005.06
2024-05-09T10:03:53.369Z,1004.94
2024-05-09T10:04:53.246Z,1005.03
2024-05-09T10:05:53.144Z,1004.97
2024-05-09T10:06:53.173Z,1005.07
2024-05-09T10:07:53.121Z,1004.95
2024-05-09T10:08:54.003Z,1005.00
2024-05-09T10:09:53.155Z,1005.03
2024-05-09T10:10:53.271Z,1005.00
2024-05-09T10:11:59.693Z,1005.01
2024-05-09T10:12:54.131Z,1004.94
2024-05-09T10:13:53.061Z,1004.99
2024-05-09T10:14:53.053Z,1005.00
2024-05-09T10:15:54.584Z,1005.00
2024-05-09T10:16:53.030Z,1005.01
2024-05-09T10:17:53.326Z,1004.98
2024-05-09T10:18:53.177Z,1005.00
2024-05-09T10:19:53.111Z,1005.02
2024-05-09T10:20:53.091Z,1004.96
2024-05-09T10:21:53.078Z,1004.94
2024-05-09T10:22:53.006Z,1004.94
2024-05-09T10:23:52.963Z,1004.99
2024-05-09T10:24:53.108Z,1004.92
2024-05-09T10:25:53.010Z,1004.90
2024-05-09T10:26:53.028Z,1004.89
2024-05-09T10:27:53.183Z,1004.92
2024-05-09T10:28:52.929Z,1004.92
2024-05-09T10:29:53.924Z,1004.95
2024-05-09T10:30:52.959Z,1005.01
2024-05-09T10:31:53.018Z,1004.92
2024-05-09T10:32:53.062Z,1004.97
2024-05-09T10:33:53.407Z,1004.92
2024-05-09T10:34:53.069Z,1004.94
2024-05-09T10:35:52.894Z,1004.96
2024-05-09T10:36:53.909Z,1004.89
2024-05-09T10:37:52.924Z,1004.86
2024-05-09T10:38:52.920Z,1004.87
2024-05-09T10:39:52.882Z,1004.90
2024-05-09T10:40:52.913Z,1004.90
2024-05-09T10:41:53.794Z,1004.87
2024-05-09T10:42:53.004Z,1004.87
2024-05-09T10:43:52.827Z,1004.86
2024-05-09T10:44:52.838Z,1004.88
2024-05-09T10:45:54.205Z,1004.92
2024-05-09T10:46:52.923Z,1004.79
2024-05-09T10:47:52.917Z,1004.81
2024-05-09T10:48:52.859Z,1004.81
2024-05-09T10:49:52.902Z,1004.72
2024-05-09T10:50:52.788Z,1004.78
2024-05-09T10:51:52.804Z,1004.66
2024-05-09T10:52:52.744Z,1004.62
2024-05-09T10:53:52.776Z,1004.62
2024-05-09T10:54:52.828Z,1004.64
2024-05-09T10:55:52.764Z,1004.61
2024-05-09T10:56:52.710Z,1004.57
2024-05-09T10:57:52.707Z,1004.58
2024-05-09T10:58:52.722Z,1004.55
2024-05-09T10:59:52.687Z,1004.58
2024-05-09T11:00:52.786Z,1004.54
2024-05-09T11:01:52.694Z,1004.53
2024-05-09T11:02:52.744Z,1004.55
2024-05-09T11:03:52.878Z,1004.55
2024-05-09T11:04:52.875Z,1004.46
2024-05-09T11:05:52.759Z,1004.52
2024-05-09T11:06:52.655Z,1004.53
2024-05-09T11:07:52.624Z,1004.46
2024-05-09T11:08:52.610Z,1004.45
2024-05-09T11:09:52.686Z,1004.46
2024-05-09T11:10:52.763Z,1004.45
2024-05-09T11:11:52.684Z,1004.46
2024-05-09T11:12:52.767Z,1004.46
2024-05-09T11:13:52.589Z,1004.44
2024-05-09T11:14:52.606Z,1004.43
2024-05-09T11:15:52.584Z,1004.39
2024-05-09T11:16:52.560Z,1004.38
2024-05-09T11:17:52.742Z,1004.39
2024-05-09T11:18:52.839Z,1004.43
2024-05-09T11:19:52.736Z,1004.38
2024-05-09T11:20:52.530Z,1004.40
2024-05-09T11:21:52.622Z,1004.42
2024-05-09T11:22:52.509Z,1004.44
2024-05-09T11:23:52.525Z,1004.40
2024-05-09T11:24:53.577Z,1004.27
2024-05-09T11:25:52.492Z,1004.30
2024-05-09T11:26:52.484Z,1004.26
2024-05-09T11:27:52.506Z,1004.31
2024-05-09T11:28:52.487Z,1004.32
2024-05-09T11:29:52.459Z,1004.35
2024-05-09T11:30:52.494Z,1004.19
2024-05-09T11:31:52.469Z,1004.19
2024-05-09T11:32:52.490Z,1004.24
2024-05-09T11:33:53.528Z,1004.31
2024-05-09T11:34:52.410Z,1004.27
2024-05-09T11:35:52.400Z,1004.35
2024-05-09T11:36:52.435Z,1004.31
2024-05-09T11:37:52.415Z,1004.40
2024-05-09T11:38:52.423Z,1004.39
2024-05-09T11:39:52.407Z,1004.41
2024-05-09T11:40:52.460Z,1004.31
2024-05-09T11:41:52.359Z,1004.30
2024-05-09T11:42:53.491Z,1004.32
2024-05-09T11:43:53.364Z,1004.23
2024-05-09T11:44:52.338Z,1004.33
2024-05-09T11:45:52.348Z,1004.33
2024-05-09T11:46:52.407Z,1004.30
2024-05-09T11:47:52.435Z,1004.34
2024-05-09T11:48:52.438Z,1004.34
2024-05-09T11:49:52.334Z,1004.28
2024-05-09T11:50:52.303Z,1004.22
2024-05-09T11:51:52.320Z,1004.25
2024-05-09T11:52:52.305Z,1004.23
2024-05-09T11:53:52.345Z,1004.18
2024-05-09T11:54:52.307Z,1004.17
2024-05-09T11:55:52.245Z,1004.17
2024-05-09T11:56:52.249Z,1004.12
2024-05-09T11:57:52.283Z,1004.17
2024-05-09T11:58:52.237Z,1004.15
2024-05-09T11:59:52.226Z,1004.11
2024-05-09T12:00:52.307Z,1004.11
2024-05-09T12:01:52.322Z,1004.17
2024-05-09T12:02:52.249Z,1004.08
2024-05-09T12:03:52.449Z,1003.99
2024-05-09T12:04:52.284Z,1004.07
2024-05-09T12:05:52.306Z,1004.00
2024-05-09T12:06:52.217Z,1004.04
2024-05-09T12:07:52.164Z,1004.09